Time;durP1;ratioP1;P1;durP2;ratioP2;P2;SDS_P1;SDS_P2;PMS_P1;PMS_P2;Temp;Humidity;BMP_temperature;BMP_pressure;BME280_temperature;BME280_humidity;BME280_pressure;Samples;Min_cycle;Max_cycle;Signal;HPM_P1;HPM_P2
2022/04/14 00:13:27;;;;;;;34.65;19.60;;;;;;;8.12;51.38;100439.84;31737038;27;98708;-73
2022/04/14 00:28:27;;;;;;;32.38;19.35;;;;;;;7.92;52.22;100443.59;31678681;27;96762;-73
2022/04/14 00:43:33;;;;;;;36.40;21.75;;;;;;;7.86;52.48;100444.16;31603095;27;96804;-74
2022/04/14 00:58:34;;;;;;;33.55;18.50;;;;;;;7.77;52.52;100448.53;31603949;27;97458;-73
2022/04/14 01:13:34;;;;;;;34.43;20.70;;;;;;;7.70;52.57;100450.94;31603440;27;96672;-73
2022/04/14 01:28:34;;;;;;;35.33;21.95;;;;;;;7.57;52.73;100445.09;31602281;27;97185;-72
2022/04/14 01:43:35;;;;;;;35.40;21.60;;;;;;;7.52;52.77;100440.25;31620604;27;97070;-74
2022/04/14 01:58:35;;;;;;;37.53;21.77;;;;;;;7.47;52.77;100434.53;31621710;27;96676;-73
2022/04/14 02:13:36;;;;;;;40.35;20.50;;;;;;;7.39;52.99;100429.94;31620643;27;96757;-73
2022/04/14 02:28:36;;;;;;;36.23;18.67;;;;;;;7.34;53.18;100424.25;31618774;27;97435;-73
2022/04/14 02:43:37;;;;;;;35.88;19.42;;;;;;;7.30;53.17;100417.56;31616494;27;96755;-72
2022/04/14 02:58:38;;;;;;;30.23;18.60;;;;;;;7.23;53.68;100408.50;31614133;27;96943;-73
2022/04/14 03:13:39;;;;;;;33.53;19.52;;;;;;;7.06;53.73;100407.44;31613496;27;96711;-74
2022/04/14 03:28:39;;;;;;;36.53;19.80;;;;;;;6.90;53.94;100410.66;31610936;27;96707;-72
2022/04/14 03:43:40;;;;;;;34.42;19.42;;;;;;;6.74;53.51;100387.41;31608660;27;97464;-73
2022/04/14 03:58:40;;;;;;;49.83;21.08;;;;;;;6.57;53.61;100381.00;31606022;27;97156;-73
2022/04/14 04:13:41;;;;;;;29.50;17.90;;;;;;;6.50;54.10;100379.88;31606247;27;96657;-71
2022/04/14 04:28:41;;;;;;;31.08;18.52;;;;;;;6.60;54.78;100378.06;31602182;27;98233;-72
2022/04/14 04:43:42;;;;;;;36.40;17.95;;;;;;;7.03;54.77;100371.47;31602532;27;96719;-71
2022/04/14 04:58:42;;;;;;;31.33;17.35;;;;;;;7.40;53.91;100373.31;31601826;27;97881;-72
2022/04/14 05:13:42;;;;;;;33.75;17.63;;;;;;;7.75;53.49;100385.03;31569170;27;97424;-72
2022/04/14 05:28:43;;;;;;;30.02;16.98;;;;;;;8.34;52.83;100387.34;31493419;27;97479;-70
2022/04/14 05:43:43;;;;;;;28.77;17.90;;;;;;;9.29;52.59;100389.44;31491275;27;103689;-73
2022/04/14 05:58:44;;;;;;;31.40;18.52;;;;;;;10.39;50.68;100397.56;31489465;27;98512;-73
2022/04/14 06:13:44;;;;;;;33.60;18.63;;;;;;;11.07;50.02;100400.91;31488443;27;96814;-71
2022/04/14 06:28:46;;;;;;;28.00;18.40;;;;;;;12.16;48.65;100400.41;31488940;27;110055;-71
2022/04/14 06:43:49;;;;;;;29.00;16.80;;;;;;;13.85;46.34;100393.06;31559888;27;96721;-75
2022/04/14 06:58:49;;;;;;;26.60;17.60;;;;;;;14.66;44.86;100388.59;31612778;27;97784;-74
2022/04/14 07:13:50;;;;;;;32.83;16.52;;;;;;;15.84;44.03;100380.75;31611417;27;112134;-72
2022/04/14 07:28:50;;;;;;;19.35;13.55;;;;;;;16.72;40.27;100384.47;31608992;27;97323;-73
2022/04/14 07:43:50;;;;;;;20.40;14.20;;;;;;;17.64;40.86;100373.81;31604295;27;96864;-71
2022/04/14 07:58:51;;;;;;;21.70;14.15;;;;;;;19.03;38.00;100381.31;31606272;27;97329;-72
2022/04/14 08:13:51;;;;;;;16.80;8.25;;;;;;;20.27;34.58;100380.34;31605623;27;96853;-72
2022/04/14 08:28:53;;;;;;;11.68;7.93;;;;;;;20.85;33.92;100363.69;31603265;27;102512;-72
2022/04/14 08:44:02;;;;;;;9.67;5.33;;;;;;;22.03;29.62;100362.69;31600143;27;97125;-72
2022/04/14 08:59:02;;;;;;;10.93;5.63;;;;;;;22.93;26.95;100350.13;31600675;27;96728;-70
2022/04/14 09:14:02;;;;;;;9.20;4.32;;;;;;;30.28;19.04;100354.38;31598896;27;97517;-72
2022/04/14 09:29:06;;;;;;;9.95;4.60;;;;;;;35.83;13.80;100348.91;31599234;27;96755;-72
2022/04/14 09:44:14;;;;;;;8.70;4.37;;;;;;;40.13;10.15;100334.41;31597335;27;97192;-74
2022/04/14 09:59:17;;;;;;;10.23;4.00;;;;;;;39.66;9.63;100335.44;31609556;27;96810;-74
2022/04/14 10:14:23;;;;;;;8.00;4.47;;;;;;;40.85;9.34;100330.16;31615350;27;96805;-74
2022/04/14 10:29:25;;;;;;;7.37;4.27;;;;;;;46.15;7.27;100309.06;31616730;27;97499;-72
2022/04/14 10:44:47;;;;;;;7.97;3.60;;;;;;;44.22;6.86;100295.75;31614211;27;97290;-72
2022/04/14 10:59:47;;;;;;;7.60;3.63;;;;;;;47.07;5.48;100287.00;31611601;27;97271;-74
2022/04/14 11:14:56;;;;;;;10.85;4.63;;;;;;;46.69;5.93;100283.34;31604702;27;97743;-75
2022/04/14 11:30:00;;;;;;;7.83;3.10;;;;;;;45.80;6.23;100263.81;31582759;27;97932;-73
2022/04/14 11:45:00;;;;;;;7.53;3.40;;;;;;;38.46;9.74;100245.41;31603158;27;97718;-74
2022/04/14 12:00:10;;;;;;;5.85;3.58;;;;;;;35.97;12.19;100234.19;31597587;27;98457;-73
2022/04/14 12:15:10;;;;;;;6.50;3.40;;;;;;;33.69;13.13;100226.91;31594480;27;97998;-73
2022/04/14 12:30:15;;;;;;;10.02;3.72;;;;;;;32.32;14.38;100210.16;31599621;27;97395;-74
2022/04/14 12:45:17;;;;;;;6.60;3.83;;;;;;;32.28;14.47;100202.84;31587430;27;96975;-72
2022/04/14 13:00:21;;;;;;;7.43;3.70;;;;;;;32.80;13.98;100180.19;31592318;27;97113;-70
2022/04/14 13:15:22;;;;;;;5.23;3.03;;;;;;;32.63;14.13;100159.69;31600053;27;97536;-74
2022/04/14 13:30:23;;;;;;;6.17;3.10;;;;;;;30.74;15.49;100152.13;31600198;27;98521;-72
2022/04/14 13:45:23;;;;;;;4.88;2.63;;;;;;;30.25;15.92;100155.25;31614430;27;97711;-72
2022/04/14 14:00:25;;;;;;;9.73;3.00;;;;;;;28.80;17.51;100147.56;31609176;27;97540;-72
2022/04/14 14:15:26;;;;;;;5.93;3.10;;;;;;;28.79;17.31;100148.69;31617264;27;97213;-71
2022/04/14 14:30:26;;;;;;;4.75;2.95;;;;;;;27.76;18.43;100144.22;31617900;27;97153;-72
2022/04/14 14:45:26;;;;;;;5.63;2.67;;;;;;;26.24;19.34;100136.19;31613972;27;96926;-71
2022/04/14 15:00:27;;;;;;;5.03;2.70;;;;;;;26.02;19.48;100140.03;31612394;27;101284;-72
2022/04/14 15:15:27;;;;;;;5.93;3.20;;;;;;;25.95;19.61;100135.94;31611654;27;97328;-73
2022/04/14 15:30:28;;;;;;;4.95;2.72;;;;;;;25.48;19.78;100151.47;31589473;27;98280;-74
2022/04/14 15:45:28;;;;;;;10.63;3.10;;;;;;;24.60;21.15;100142.16;31572563;27;97529;-73
2022/04/14 16:00:29;;;;;;;7.13;3.00;;;;;;;23.74;22.43;100146.72;31468363;27;96846;-73
2022/04/14 16:15:30;;;;;;;11.17;3.77;;;;;;;23.38;23.00;100149.13;31556382;27;97404;-72
2022/04/14 16:30:31;;;;;;;5.17;2.90;;;;;;;23.05;23.49;100159.06;31587829;27;97419;-73
2022/04/14 16:45:31;;;;;;;13.17;6.03;;;;;;;22.38;24.94;100169.88;31601515;27;97490;-73
2022/04/14 17:00:31;;;;;;;14.90;7.33;;;;;;;21.54;26.92;100176.91;31544984;27;97820;-72
2022/04/14 17:15:32;;;;;;;14.95;7.45;;;;;;;20.71;28.49;100190.66;31621263;27;106374;-72
2022/04/14 17:30:33;;;;;;;16.73;8.27;;;;;;;19.97;29.82;100212.72;31620128;27;97144;-73
2022/04/14 17:45:36;;;;;;;24.10;9.48;;;;;;;19.40;30.97;100224.72;31597568;27;99200;-71
2022/04/14 18:00:37;;;;;;;22.20;9.93;;;;;;;19.07;32.19;100265.63;31595904;27;98665;-71
2022/04/14 18:15:38;;;;;;;16.23;9.57;;;;;;;18.64;34.15;100296.13;31607365;27;96798;-73
2022/04/14 18:30:38;;;;;;;15.93;9.85;;;;;;;18.14;35.87;100308.53;31616573;27;97965;-72
2022/04/14 18:45:39;;;;;;;17.95;10.10;;;;;;;17.86;37.36;100317.75;31616470;27;97778;-74
2022/04/14 19:00:40;;;;;;;18.52;10.32;;;;;;;17.70;38.15;100329.03;31614456;27;99526;-72
2022/04/14 19:15:40;;;;;;;16.73;9.33;;;;;;;17.49;38.59;100349.00;31612967;27;98636;-73
2022/04/14 19:30:41;;;;;;;18.85;11.23;;;;;;;17.07;39.21;100351.97;31610189;27;96750;-74
2022/04/14 19:45:43;;;;;;;20.50;11.53;;;;;;;16.65;40.22;100359.41;31608410;27;97531;-73
2022/04/14 20:00:44;;;;;;;23.37;10.40;;;;;;;16.31;41.37;100380.09;31550984;27;97903;-73
2022/04/14 20:15:44;;;;;;;14.90;8.33;;;;;;;16.05;42.62;100397.78;31478946;27;97492;-73
2022/04/14 20:57:44;;;;;;;8.10;5.30;;;;;;;15.27;48.01;100416.72;31083336;28;96438;-73
2022/04/14 21:12:44;;;;;;;9.60;5.57;;;;;;;15.31;48.85;100421.53;30953636;28;96996;-72
2022/04/14 21:27:45;;;;;;;16.30;8.60;;;;;;;15.26;49.12;100415.09;30999931;28;96766;-73
2022/04/14 21:42:45;;;;;;;15.10;8.77;;;;;;;15.10;49.47;100414.34;31011353;28;96951;-71
2022/04/14 21:57:46;;;;;;;11.98;7.72;;;;;;;15.09;50.27;100415.38;30995982;28;97157;-72
2022/04/14 22:12:46;;;;;;;13.02;6.55;;;;;;;15.00;50.86;100424.59;30990772;28;97340;-73
2022/04/14 22:27:47;;;;;;;6.07;4.40;;;;;;;14.84;51.98;100428.38;30988969;28;108378;-70
2022/04/14 22:42:47;;;;;;;6.38;3.80;;;;;;;14.62;53.02;100449.78;30987519;28;96986;-70
2022/04/14 22:57:48;;;;;;;17.85;5.10;;;;;;;14.36;54.96;100469.09;30986225;28;97212;-70
2022/04/14 23:12:48;;;;;;;7.10;3.83;;;;;;;13.99;57.13;100455.66;30983750;28;96753;-71
2022/04/14 23:27:48;;;;;;;8.07;4.22;;;;;;;13.86;58.15;100463.53;30983930;28;96879;-72
2022/04/14 23:42:49;;;;;;;10.63;5.13;;;;;;;13.68;59.04;100461.19;30981780;28;100226;-71
2022/04/14 23:57:49;;;;;;;8.57;5.93;;;;;;;13.30;60.71;100456.72;30971042;28;97643;-72
